Time;durP1;ratioP1;P1;durP2;ratioP2;P2;SDS_P1;SDS_P2;PMS_P1;PMS_P2;Temp;Humidity;BMP_temperature;BMP_pressure;BME280_temperature;BME280_humidity;BME280_pressure;Samples;Min_cycle;Max_cycle;Signal;HPM_P1;HPM_P2
2023/08/29 00:01:28;;;;;;;;;;;14.80;71.60;;;10.53;100.00;94985.84;5019350;28;19955;-52
2023/08/29 00:03:58;;;;;;;;;;;14.80;71.60;;;10.51;100.00;94979.19;5031389;28;19913;-48
2023/08/29 00:06:24;;;;;;;;;;;14.80;71.60;;;10.49;100.00;94984.00;5030618;28;19920;-51
2023/08/29 00:08:50;;;;;;;;;;;14.80;71.60;;;10.47;100.00;94976.31;5031629;28;20379;-47
2023/08/29 00:11:16;;;;;;;;;;;14.80;71.70;;;10.48;100.00;94982.41;5031036;28;19916;-47
2023/08/29 00:13:43;;;;;;;;;;;14.80;71.70;;;10.47;100.00;94984.28;5031932;28;19953;-50
2023/08/29 00:16:12;;;;;;;;;;;14.80;71.70;;;10.44;100.00;94982.19;5031269;28;20290;-47
2023/08/29 00:18:38;;;;;;;;;;;14.80;71.70;;;10.45;100.00;94988.28;5027581;28;19924;-49
2023/08/29 00:21:04;;;;;;;;;;;14.80;71.70;;;10.44;100.00;94984.06;5022960;28;19908;-54
2023/08/29 00:23:29;;;;;;;;;;;14.70;71.70;;;10.42;100.00;94977.13;5030527;28;19909;-49
2023/08/29 00:25:55;;;;;;;;;;;14.80;71.80;;;10.40;100.00;94986.44;5031945;28;19913;-47
2023/08/29 00:28:21;;;;;;;;;;;14.70;72.50;;;10.39;100.00;94976.88;5017407;28;19908;-47
2023/08/29 00:30:47;;;;;;;;;;;14.70;71.70;;;10.38;100.00;94978.75;5031852;28;19915;-48
2023/08/29 00:33:12;;;;;;;;;;;14.70;71.80;;;10.32;100.00;94979.88;5018443;28;19908;-47
2023/08/29 00:35:39;;;;;;;;;;;14.70;71.80;;;10.31;100.00;94967.63;5019939;28;20003;-47
2023/08/29 00:38:05;;;;;;;;;;;14.60;71.70;;;10.29;100.00;94972.44;5008418;28;19913;-47
2023/08/29 00:40:32;;;;;;;;;;;14.60;71.80;;;10.30;100.00;94971.34;5022007;28;20264;-49
2023/08/29 00:43:02;;;;;;;;;;;14.60;71.80;;;10.33;100.00;94972.66;5028352;28;19909;-48
2023/08/29 00:45:35;;;;;;;;;;;14.60;72.60;;;10.33;100.00;94975.34;5021579;28;19916;-48
2023/08/29 00:48:02;;;;;;;;;;;14.60;71.80;;;10.30;100.00;94974.00;5027916;28;19995;-47
2023/08/29 00:50:29;;;;;;;;;;;14.60;71.90;;;10.29;100.00;94988.41;5007585;28;19909;-51
2023/08/29 00:53:00;;;;;;;;;;;14.60;71.90;;;10.30;100.00;94974.00;5010477;28;19913;-47
2023/08/29 00:55:28;;;;;;;;;;;14.60;71.80;;;10.28;100.00;94981.50;5029106;28;19917;-52
2023/08/29 00:57:59;;;;;;;;;;;14.60;71.80;;;10.27;100.00;94971.13;5035346;28;19908;-48
2023/08/29 01:00:30;;;;;;;;;;;14.60;71.90;;;10.29;100.00;94969.78;5014218;28;20015;-48
2023/08/29 01:02:58;;;;;;;;;;;14.60;72.60;;;10.32;100.00;94971.88;5033240;28;19912;-47
2023/08/29 01:05:24;;;;;;;;;;;14.60;71.90;;;10.30;100.00;94973.22;5033817;28;19955;-48
2023/08/29 01:07:56;;;;;;;;;;;14.60;71.90;;;10.30;100.00;94968.69;5029760;28;19956;-49
2023/08/29 01:10:40;;;;;;;;;;;14.60;71.90;;;10.29;100.00;94976.97;5017269;28;20271;-48
2023/08/29 01:13:34;;;;;;;;;;;14.60;71.90;;;10.28;100.00;94973.50;5018469;28;19909;-48
2023/08/29 01:16:07;;;;;;;;;;;14.60;71.90;;;10.27;100.00;94969.25;5017562;28;19913;-50
2023/08/29 01:18:37;;;;;;;;;;;14.60;71.90;;;10.21;100.00;94967.66;5014980;28;19948;-47
2023/08/29 01:21:29;;;;;;;;;;;14.60;71.90;;;10.19;100.00;94964.50;5011169;28;20471;-48
2023/08/29 01:24:26;;;;;;;;;;;14.60;71.80;;;10.17;100.00;94967.41;5028818;28;19908;-48
2023/08/29 01:26:55;;;;;;;;;;;14.60;71.90;;;10.18;100.00;94965.53;5004496;28;20395;-48
2023/08/29 01:29:21;;;;;;;;;;;14.60;71.90;;;10.19;100.00;94956.50;5013631;28;19936;-48
2023/08/29 01:31:48;;;;;;;;;;;14.50;71.80;;;10.19;100.00;94957.31;5017050;28;20319;-48
2023/08/29 01:34:15;;;;;;;;;;;14.50;71.80;;;10.19;100.00;94961.84;5015913;28;19909;-48
2023/08/29 01:36:43;;;;;;;;;;;14.50;71.80;;;10.18;100.00;94953.06;5017222;28;19908;-48
2023/08/29 01:39:09;;;;;;;;;;;14.50;71.80;;;10.19;100.00;94959.16;5029740;28;20402;-48
2023/08/29 01:41:35;;;;;;;;;;;14.50;71.90;;;10.18;100.00;94965.53;5023656;28;19916;-48
2023/08/29 01:44:05;;;;;;;;;;;14.50;71.80;;;10.15;100.00;94966.91;5032601;28;19909;-49
2023/08/29 01:46:31;;;;;;;;;;;14.50;71.80;;;10.13;100.00;94965.59;5033294;28;19916;-50
2023/08/29 01:49:02;;;;;;;;;;;14.50;71.80;;;10.13;100.00;94969.06;5034112;28;20291;-47
2023/08/29 01:51:28;;;;;;;;;;;14.50;71.80;;;10.16;100.00;94963.19;5021995;28;19916;-47
2023/08/29 01:53:55;;;;;;;;;;;14.50;71.80;;;10.15;100.00;94955.44;5031808;28;20390;-52
2023/08/29 01:56:25;;;;;;;;;;;14.50;71.80;;;10.12;100.00;94954.16;5021222;28;19917;-48
2023/08/29 01:58:54;;;;;;;;;;;14.50;71.80;;;10.11;100.00;94957.88;5015814;28;19916;-50
2023/08/29 02:01:20;;;;;;;;;;;14.50;71.90;;;10.10;100.00;94960.81;5016404;28;19909;-48
2023/08/29 02:03:47;;;;;;;;;;;14.50;71.90;;;10.05;100.00;94955.53;5021439;28;19908;-48
2023/08/29 02:06:14;;;;;;;;;;;14.50;71.90;;;10.06;100.00;94963.25;5019512;28;19916;-48
2023/08/29 02:08:41;;;;;;;;;;;14.40;71.80;;;10.07;100.00;94964.03;5033798;28;19955;-49
2023/08/29 02:11:07;;;;;;;;;;;14.40;71.90;;;10.06;100.00;94959.75;5032496;28;20332;-48
2023/08/29 02:13:33;;;;;;;;;;;14.40;72.00;;;10.07;100.00;94964.81;5026304;28;19909;-49
2023/08/29 02:16:02;;;;;;;;;;;14.40;72.00;;;10.09;100.00;94956.56;5028179;28;19913;-49
2023/08/29 02:18:29;;;;;;;;;;;14.50;72.10;;;10.07;100.00;94956.06;5025451;28;20379;-48
2023/08/29 02:20:54;;;;;;;;;;;14.40;72.00;;;10.05;100.00;94966.97;5028494;28;19908;-48
2023/08/29 02:23:20;;;;;;;;;;;14.40;72.00;;;10.09;100.00;94953.91;5031358;28;19978;-49
2023/08/29 02:25:46;;;;;;;;;;;14.40;72.00;;;10.07;100.00;94958.72;5020284;28;19916;-48
2023/08/29 02:28:14;;;;;;;;;;;14.40;72.10;;;10.08;100.00;94957.63;5033056;28;19909;-48
2023/08/29 02:30:40;;;;;;;;;;;14.40;72.10;;;10.06;100.00;94951.78;5032336;28;19909;-48
2023/08/29 02:33:05;;;;;;;;;;;14.40;72.10;;;10.06;100.00;94951.78;5021776;28;20031;-47
2023/08/29 02:35:31;;;;;;;;;;;14.40;72.10;;;10.07;100.00;94953.41;5031016;28;20007;-47
2023/08/29 02:37:57;;;;;;;;;;;14.40;72.10;;;10.03;100.00;94955.81;5021826;28;19954;-48
2023/08/29 02:40:22;;;;;;;;;;;14.40;72.20;;;10.02;100.00;94948.88;5018301;28;19952;-47
2023/08/29 02:42:48;;;;;;;;;;;14.40;72.90;;;10.04;100.00;94945.97;5028474;28;20003;-48
2023/08/29 02:45:14;;;;;;;;;;;14.40;72.20;;;10.05;100.00;94948.34;5032092;28;19931;-48
2023/08/29 02:47:40;;;;;;;;;;;14.40;72.30;;;10.06;100.00;94947.28;5020956;28;19916;-48
2023/08/29 02:50:06;;;;;;;;;;;14.40;72.20;;;10.07;100.00;94940.09;5031953;28;19913;-48
2023/08/29 02:52:32;;;;;;;;;;;14.40;72.30;;;10.06;100.00;94947.28;5020491;28;19913;-48
2023/08/29 02:54:58;;;;;;;;;;;14.40;72.30;;;10.07;100.00;94940.88;5032631;28;19924;-48
2023/08/29 02:57:24;;;;;;;;;;;14.40;72.30;;;10.11;100.00;94946.44;5024895;28;20022;-47
2023/08/29 02:59:50;;;;;;;;;;;14.40;72.30;;;10.13;100.00;94949.63;5027206;28;20371;-48
2023/08/29 03:02:15;;;;;;;;;;;14.40;72.40;;;10.15;100.00;94953.59;5033004;28;19954;-48
2023/08/29 03:04:42;;;;;;;;;;;14.40;72.40;;;10.15;100.00;94950.13;5021331;28;20007;-47
2023/08/29 03:07:08;;;;;;;;;;;14.40;72.30;;;10.15;100.00;94945.63;5032697;28;19915;-47
2023/08/29 03:09:34;;;;;;;;;;;14.50;72.40;;;10.16;100.00;94943.75;5027071;28;20007;-50
2023/08/29 03:11:59;;;;;;;;;;;14.50;72.30;;;10.15;100.00;94942.97;5031735;28;19912;-48
2023/08/29 03:14:27;;;;;;;;;;;14.50;72.30;;;10.17;100.00;94946.13;5030242;28;20374;-46
2023/08/29 03:16:53;;;;;;;;;;;14.50;72.30;;;10.21;100.00;94943.69;5020101;28;19908;-48
2023/08/29 03:19:19;;;;;;;;;;;14.50;72.30;;;10.22;100.00;94942.66;5033010;28;19917;-50
2023/08/29 03:21:44;;;;;;;;;;;14.60;72.40;;;10.22;100.00;94942.66;5032619;28;19908;-51
2023/08/29 03:24:10;;;;;;;;;;;14.60;72.40;;;10.22;100.00;94933.88;5031267;28;19916;-48
2023/08/29 03:26:36;;;;;;;;;;;14.60;72.30;;;10.20;100.00;94931.47;5025136;28;19952;-48
2023/08/29 03:29:02;;;;;;;;;;;14.60;72.30;;;10.23;100.00;94930.91;5026274;28;19909;-48
2023/08/29 03:31:28;;;;;;;;;;;14.60;72.30;;;10.25;100.00;94928.78;5032457;28;19932;-47
2023/08/29 03:33:54;;;;;;;;;;;14.60;72.30;;;10.26;100.00;94933.06;5019021;28;19909;-48
2023/08/29 03:36:20;;;;;;;;;;;14.60;72.30;;;10.29;100.00;94923.72;5031465;28;19909;-47
2023/08/29 03:38:46;;;;;;;;;;;14.60;72.30;;;10.29;100.00;94932.50;5018708;28;20442;-47
2023/08/29 03:41:12;;;;;;;;;;;14.70;72.30;;;10.30;100.00;94926.09;5031427;28;20015;-48
2023/08/29 03:43:38;;;;;;;;;;;14.70;72.30;;;10.29;100.00;94929.84;5010360;28;19908;-48
2023/08/29 03:46:06;;;;;;;;;;;14.70;72.30;;;10.31;100.00;94926.88;5024726;28;19951;-49
2023/08/29 03:48:34;;;;;;;;;;;14.70;72.30;;;10.31;100.00;94927.69;5016154;28;19944;-48
2023/08/29 03:51:06;;;;;;;;;;;14.70;72.30;;;10.29;100.00;94929.06;5032396;28;20371;-49
2023/08/29 03:53:36;;;;;;;;;;;14.70;72.30;;;10.31;100.00;94932.22;5016078;28;19917;-49
2023/08/29 03:56:04;;;;;;;;;;;14.70;72.30;;;10.32;100.00;94939.94;5022479;28;19909;-53
2023/08/29 03:58:34;;;;;;;;;;;14.70;72.30;;;10.36;100.00;94946.28;5030941;28;19912;-47
2023/08/29 04:01:03;;;;;;;;;;;14.70;72.30;;;10.33;100.00;94940.72;5032138;28;19912;-48
2023/08/29 04:03:30;;;;;;;;;;;14.70;72.20;;;10.35;100.00;94944.69;5018857;28;20055;-47
2023/08/29 04:05:57;;;;;;;;;;;14.70;72.30;;;10.37;100.00;94952.41;5031091;28;20386;-47
2023/08/29 04:08:23;;;;;;;;;;;14.70;72.30;;;10.39;100.00;94948.38;5026539;28;19971;-48
2023/08/29 04:10:49;;;;;;;;;;;14.70;72.30;;;10.39;100.00;94945.72;5030947;28;20024;-48
2023/08/29 04:13:15;;;;;;;;;;;14.70;72.30;;;10.42;100.00;94952.38;5031763;28;20001;-50
2023/08/29 04:15:41;;;;;;;;;;;14.70;72.30;;;10.40;100.00;94947.34;5011103;28;19956;-49
2023/08/29 04:18:08;;;;;;;;;;;14.70;72.40;;;10.40;100.00;94949.19;5029127;28;19916;-49
2023/08/29 04:20:34;;;;;;;;;;;14.70;72.40;;;10.40;100.00;94954.50;5035080;28;19925;-48
2023/08/29 04:23:03;;;;;;;;;;;14.70;72.40;;;10.38;100.00;94951.34;5023750;28;19956;-48
2023/08/29 04:25:30;;;;;;;;;;;14.70;72.40;;;10.39;100.00;94953.72;5015126;28;19920;-47
2023/08/29 04:27:56;;;;;;;;;;;14.70;72.40;;;10.41;100.00;94954.25;5034470;28;19959;-48
2023/08/29 04:30:22;;;;;;;;;;;14.70;72.40;;;10.39;100.00;94950.25;5023116;28;20281;-48
2023/08/29 04:32:50;;;;;;;;;;;14.70;72.40;;;10.38;100.00;94951.34;5034076;28;19962;-48
2023/08/29 04:35:16;;;;;;;;;;;14.70;73.10;;;10.38;100.00;94954.78;5031447;28;19955;-48
2023/08/29 04:37:48;;;;;;;;;;;14.70;72.30;;;10.40;100.00;94955.31;5035656;28;19962;-48
2023/08/29 04:40:17;;;;;;;;;;;14.70;72.40;;;10.40;100.00;94955.31;5022437;28;20011;-48
2023/08/29 04:42:44;;;;;;;;;;;14.70;72.40;;;10.40;100.00;94952.66;5035454;28;19908;-48
2023/08/29 04:45:10;;;;;;;;;;;14.70;72.40;;;10.42;100.00;94957.69;5035291;28;19955;-47
2023/08/29 04:47:38;;;;;;;;;;;14.70;72.40;;;10.39;100.00;94952.91;5025647;28;19912;-49
2023/08/29 04:50:05;;;;;;;;;;;14.70;72.40;;;10.38;100.00;94962.00;5034856;28;19909;-49
2023/08/29 04:52:31;;;;;;;;;;;14.70;72.30;;;10.39;100.00;94959.03;5021956;28;19962;-48
2023/08/29 04:54:57;;;;;;;;;;;14.70;72.40;;;10.38;100.00;94962.78;5030077;23;19921;-44
2023/08/29 04:57:23;;;;;;;;;;;14.70;72.40;;;10.40;100.00;94968.63;4996700;28;19912;-44
2023/08/29 04:59:49;;;;;;;;;;;14.70;72.40;;;10.40;100.00;94960.66;5017817;28;19917;-46
2023/08/29 05:02:16;;;;;;;;;;;14.70;72.40;;;10.40;100.00;94963.31;5014228;28;20272;-44
2023/08/29 05:04:42;;;;;;;;;;;14.70;72.40;;;10.42;100.00;94963.03;5013171;28;19913;-45
2023/08/29 05:07:10;;;;;;;;;;;14.70;72.40;;;10.46;100.00;94965.91;4995686;28;20379;-45
2023/08/29 05:09:36;;;;;;;;;;;14.80;72.40;;;10.44;100.00;94963.53;5015281;28;20275;-45
2023/08/29 05:12:02;;;;;;;;;;;14.80;72.40;;;10.40;100.00;94954.50;5019693;28;20298;-45
2023/08/29 05:14:28;;;;;;;;;;;14.80;72.40;;;10.38;100.00;94960.13;5020448;28;19909;-44
2023/08/29 05:16:54;;;;;;;;;;;14.80;72.40;;;10.44;100.00;94957.44;5014564;28;19913;-44
2023/08/29 05:19:20;;;;;;;;;;;14.80;72.30;;;10.42;100.00;94955.81;5015320;28;19958;-49
2023/08/29 05:21:46;;;;;;;;;;;14.80;72.30;;;10.40;100.00;94965.97;5015160;28;20059;-45
2023/08/29 05:24:12;;;;;;;;;;;14.80;72.30;;;10.37;100.00;94961.19;5013664;28;19909;-47
2023/08/29 05:26:37;;;;;;;;;;;14.80;73.10;;;10.39;100.00;94959.03;5015119;28;20433;-47
2023/08/29 05:29:03;;;;;;;;;;;14.80;72.30;;;10.40;100.00;94960.66;5013775;28;19960;-45
2023/08/29 05:31:29;;;;;;;;;;;14.80;72.30;;;10.42;100.00;94966.47;5014179;28;19916;-46
2023/08/29 05:33:55;;;;;;;;;;;14.80;72.30;;;10.39;100.00;94961.69;5022578;28;19909;-46
2023/08/29 05:36:22;;;;;;;;;;;14.90;72.40;;;10.41;100.00;94961.44;4992314;28;19947;-44
2023/08/29 05:38:48;;;;;;;;;;;14.90;72.30;;;10.36;100.00;94964.13;5014457;28;19962;-46
2023/08/29 05:41:14;;;;;;;;;;;14.90;72.30;;;10.39;100.00;94969.69;5013558;28;19909;-44
2023/08/29 05:43:41;;;;;;;;;;;14.90;72.20;;;10.37;100.00;94965.72;5013395;28;20319;-46
2023/08/29 05:46:06;;;;;;;;;;;14.90;72.20;;;10.43;100.00;94977.91;5014283;28;19913;-48
2023/08/29 05:48:32;;;;;;;;;;;14.90;72.20;;;10.45;100.00;94970.44;4989273;28;20291;-44
2023/08/29 05:50:58;;;;;;;;;;;14.90;72.20;;;10.49;100.00;94968.81;5013254;28;19914;-45
2023/08/29 05:53:23;;;;;;;;;;;15.00;72.30;;;10.50;100.00;94975.75;5012009;28;20003;-45
2023/08/29 05:55:49;;;;;;;;;;;15.00;72.20;;;10.53;100.00;94979.69;5014305;28;19913;-45
2023/08/29 05:58:16;;;;;;;;;;;15.00;72.20;;;10.52;100.00;94981.56;5013268;28;19916;-47
2023/08/29 06:00:42;;;;;;;;;;;15.00;72.10;;;10.52;100.00;94976.25;5014488;28;19913;-47
2023/08/29 06:03:08;;;;;;;;;;;15.10;72.10;;;10.53;100.00;94980.53;5013928;28;20280;-45
2023/08/29 06:05:38;;;;;;;;;;;15.00;72.10;;;10.59;100.00;94982.06;5018898;28;19909;-47
2023/08/29 06:08:06;;;;;;;;;;;15.10;72.10;;;10.58;100.00;94987.66;5014095;28;19909;-45
2023/08/29 06:10:32;;;;;;;;;;;15.10;72.20;;;10.57;100.00;94989.53;5013127;28;19916;-46
2023/08/29 06:12:57;;;;;;;;;;;15.10;72.10;;;10.59;100.00;94992.72;5014064;28;19940;-44
2023/08/29 06:15:23;;;;;;;;;;;15.10;72.10;;;10.60;100.00;94990.84;5014057;28;20359;-44
2023/08/29 06:17:50;;;;;;;;;;;15.10;72.20;;;10.63;100.00;94993.75;5015205;28;20379;-45
2023/08/29 06:20:16;;;;;;;;;;;15.10;72.10;;;10.65;100.00;94998.78;5014015;28;20287;-45
2023/08/29 06:22:42;;;;;;;;;;;15.10;72.10;;;10.70;100.00;94997.97;5012690;28;19915;-43
2023/08/29 06:25:10;;;;;;;;;;;15.10;72.20;;;10.72;100.00;94998.47;5012182;28;19909;-44
2023/08/29 06:27:37;;;;;;;;;;;15.20;72.20;;;10.77;100.00;95001.88;5013906;28;19913;-43
2023/08/29 06:30:04;;;;;;;;;;;15.20;72.30;;;10.78;100.00;95008.00;5012884;28;20291;-44
2023/08/29 06:32:30;;;;;;;;;;;15.20;72.20;;;10.80;100.00;95006.66;5013952;28;20295;-48
2023/08/29 06:34:57;;;;;;;;;;;15.30;72.20;;;10.77;100.00;95007.22;5018238;28;19935;-46
2023/08/29 06:37:23;;;;;;;;;;;15.30;72.10;;;10.73;100.00;95008.84;5013751;28;19909;-44
2023/08/29 06:39:48;;;;;;;;;;;15.30;72.10;;;10.71;100.00;95015.53;5013275;28;20326;-45
2023/08/29 06:42:14;;;;;;;;;;;15.30;72.10;;;10.75;100.00;95013.88;5012502;28;19924;-45
2023/08/29 06:44:40;;;;;;;;;;;15.30;72.00;;;10.72;100.00;95017.09;5013344;28;19909;-45
2023/08/29 06:47:06;;;;;;;;;;;15.30;72.00;;;10.78;100.00;95024.81;4989434;28;19984;-45
2023/08/29 06:49:32;;;;;;;;;;;15.30;72.00;;;10.78;100.00;95022.13;5011535;28;20012;-45
2023/08/29 06:51:58;;;;;;;;;;;15.30;72.00;;;10.79;100.00;95025.59;4992845;28;20004;-44
2023/08/29 06:54:24;;;;;;;;;;;15.40;72.00;;;10.83;100.00;95027.41;5009923;28;19924;-49
2023/08/29 06:56:49;;;;;;;;;;;15.40;72.00;;;10.69;100.00;95031.78;5013394;28;19913;-47
2023/08/29 06:59:16;;;;;;;;;;;15.40;72.00;;;10.82;100.00;95025.81;5012383;28;19913;-44
2023/08/29 07:01:41;;;;;;;;;;;15.40;71.90;;;10.89;100.00;95026.28;5013371;28;20371;-44
2023/08/29 07:04:10;;;;;;;;;;;15.40;72.00;;;10.95;100.00;95024.38;4996571;28;19916;-47
2023/08/29 07:06:36;;;;;;;;;;;15.50;72.00;;;10.95;100.00;95024.38;5020592;28;19913;-45
2023/08/29 07:09:02;;;;;;;;;;;15.60;72.00;;;11.04;100.00;95035.25;5013073;28;19913;-47
2023/08/29 07:11:28;;;;;;;;;;;15.70;71.90;;;11.09;100.00;95030.66;5012219;28;19909;-45
2023/08/29 07:13:53;;;;;;;;;;;15.80;71.80;;;11.12;100.00;95029.28;5013093;28;19970;-44
2023/08/29 07:16:19;;;;;;;;;;;15.90;71.70;;;11.23;100.00;95033.44;5012509;28;19920;-49
2023/08/29 07:18:46;;;;;;;;;;;16.00;71.50;;;11.32;100.00;95033.63;5012970;28;19909;-44
2023/08/29 07:21:12;;;;;;;;;;;16.10;71.50;;;11.42;100.00;95033.53;5012869;28;20291;-45
2023/08/29 07:23:37;;;;;;;;;;;16.20;71.40;;;11.44;100.00;95038.56;5011570;28;19916;-46
2023/08/29 07:26:03;;;;;;;;;;;16.40;71.30;;;11.46;100.00;95026.53;5012860;28;19909;-46
2023/08/29 07:28:29;;;;;;;;;;;16.50;71.20;;;11.51;100.00;95034.50;5011958;28;19913;-45
2023/08/29 07:30:57;;;;;;;;;;;16.50;70.90;;;11.48;100.00;95039.63;5012792;28;19961;-45
2023/08/29 07:33:23;;;;;;;;;;;16.50;70.80;;;11.54;100.00;95039.28;4999765;28;19936;-45
2023/08/29 07:35:49;;;;;;;;;;;16.50;70.70;;;11.52;100.00;95044.09;4994265;28;19952;-44
2023/08/29 07:38:17;;;;;;;;;;;16.60;70.80;;;11.55;100.00;95042.72;5012554;28;20283;-44
2023/08/29 07:40:46;;;;;;;;;;;16.50;70.70;;;11.43;100.00;95043.13;4994256;28;19959;-45
2023/08/29 07:43:14;;;;;;;;;;;16.60;70.60;;;11.48;100.00;95047.63;5012662;28;19909;-45
2023/08/29 07:45:41;;;;;;;;;;;16.50;70.40;;;11.52;100.00;95045.97;4995168;28;19962;-44
2023/08/29 07:48:07;;;;;;;;;;;16.50;70.40;;;11.62;100.00;95055.72;5011743;28;19909;-44
2023/08/29 07:50:33;;;;;;;;;;;16.50;70.60;;;11.51;100.00;95055.06;5012454;28;19978;-45
2023/08/29 07:52:59;;;;;;;;;;;16.40;70.60;;;11.56;100.00;95052.31;5011142;28;19913;-48
2023/08/29 07:55:25;;;;;;;;;;;16.40;70.60;;;11.62;100.00;95061.84;5011820;28;19917;-45
2023/08/29 07:57:51;;;;;;;;;;;16.40;70.60;;;11.70;100.00;95063.13;5012479;28;19943;-45
2023/08/29 08:00:18;;;;;;;;;;;16.50;70.70;;;11.70;100.00;95063.91;5013421;28;19920;-46
2023/08/29 08:02:44;;;;;;;;;;;16.50;70.70;;;11.64;100.00;95065.03;5012280;28;20292;-45
2023/08/29 08:05:15;;;;;;;;;;;16.50;70.70;;;11.69;100.00;95065.00;5017462;28;19909;-45
2023/08/29 08:07:44;;;;;;;;;;;16.60;70.70;;;11.67;100.00;95061.81;5012383;28;19932;-45
2023/08/29 08:10:12;;;;;;;;;;;16.60;70.50;;;11.72;100.00;95061.75;5012261;28;19920;-45
2023/08/29 08:12:40;;;;;;;;;;;16.70;70.50;;;11.74;100.00;95056.13;5011410;28;20326;-45
2023/08/29 08:15:08;;;;;;;;;;;16.70;70.40;;;11.67;100.00;95059.13;5012004;28;19913;-46
2023/08/29 08:17:35;;;;;;;;;;;16.70;70.30;;;11.73;100.00;95062.56;5021342;28;19908;-50
2023/08/29 08:20:06;;;;;;;;;;;16.80;70.30;;;11.80;100.00;95063.00;5014612;28;20335;-45
2023/08/29 08:22:32;;;;;;;;;;;16.90;70.30;;;11.86;100.00;95053.09;5013255;28;20151;-45
2023/08/29 08:24:58;;;;;;;;;;;16.90;70.20;;;11.90;100.00;95065.56;5013757;28;19909;-45
2023/08/29 08:27:24;;;;;;;;;;;17.00;70.10;;;11.96;100.00;95059.09;5012268;28;20401;-45
2023/08/29 08:29:50;;;;;;;;;;;17.10;70.10;;;12.03;100.00;95058.75;5011165;28;19941;-44
2023/08/29 08:32:15;;;;;;;;;;;17.30;69.90;;;12.09;100.00;95056.81;5012241;28;19998;-44
2023/08/29 08:34:41;;;;;;;;;;;17.40;69.80;;;12.18;100.00;95063.09;5014173;28;19908;-47
2023/08/29 08:37:08;;;;;;;;;;;17.50;69.60;;;12.19;100.00;95065.50;5020949;28;19909;-44
2023/08/29 08:39:34;;;;;;;;;;;17.50;69.50;;;12.28;100.00;95060.28;5011915;28;19913;-45
2023/08/29 08:42:02;;;;;;;;;;;17.50;69.50;;;12.27;100.00;95064.06;5011105;28;19916;-46
2023/08/29 08:44:32;;;;;;;;;;;17.60;69.50;;;12.34;100.00;95061.81;5011957;28;19909;-44
2023/08/29 08:46:59;;;;;;;;;;;17.50;69.40;;;12.43;100.00;95067.31;5010878;28;19980;-49
2023/08/29 08:49:28;;;;;;;;;;;17.50;69.50;;;12.48;100.00;95068.03;5012060;28;20042;-46
2023/08/29 08:51:55;;;;;;;;;;;17.50;69.60;;;12.44;100.00;95068.88;4991072;28;19909;-44
2023/08/29 08:54:23;;;;;;;;;;;17.60;69.60;;;12.47;100.00;95066.47;4990620;28;19924;-44
2023/08/29 08:56:49;;;;;;;;;;;17.70;69.60;;;12.64;100.00;95067.81;5009996;28;20351;-44
2023/08/29 08:59:15;;;;;;;;;;;17.70;69.50;;;12.65;100.00;95059.50;5007083;28;19964;-46
2023/08/29 09:01:42;;;;;;;;;;;17.80;69.50;;;12.67;100.00;95059.22;4991442;28;19913;-51
2023/08/29 09:04:09;;;;;;;;;;;17.90;69.30;;;12.67;100.00;95062.69;5009899;28;20287;-49
2023/08/29 09:06:35;;;;;;;;;;;18.00;69.10;;;12.77;100.00;95063.63;5009731;28;19916;-46
2023/08/29 09:09:19;;;;;;;;;;;18.20;69.00;;;12.85;100.00;95063.78;5013712;28;20323;-48
2023/08/29 09:11:54;;;;;;;;;;;18.30;68.80;;;12.92;100.00;95058.06;5014241;28;19939;-48
2023/08/29 09:14:22;;;;;;;;;;;18.30;68.70;;;12.93;100.00;95057.75;5015211;28;19913;-45
2023/08/29 09:16:56;;;;;;;;;;;18.40;68.60;;;13.04;100.00;95055.72;5014446;28;19916;-45
2023/08/29 09:19:23;;;;;;;;;;;18.50;68.50;;;13.08;100.00;95062.06;5015249;28;19913;-46
2023/08/29 09:21:50;;;;;;;;;;;18.50;68.30;;;13.07;100.00;95065.03;5015160;28;19917;-47
2023/08/29 09:24:36;;;;;;;;;;;18.60;68.20;;;13.02;100.00;95062.44;5017264;28;19963;-47
2023/08/29 09:27:09;;;;;;;;;;;18.60;68.00;;;13.06;100.00;95058.09;5015191;28;19915;-46
2023/08/29 09:29:36;;;;;;;;;;;18.70;67.80;;;13.20;100.00;95064.28;5014205;28;19917;-46
2023/08/29 09:32:13;;;;;;;;;;;18.80;67.80;;;13.29;100.00;95067.91;5014967;28;19909;-47
2023/08/29 09:34:39;;;;;;;;;;;18.90;67.80;;;13.28;100.00;95071.63;5016444;28;19917;-44
2023/08/29 09:37:06;;;;;;;;;;;18.90;67.50;;;13.39;100.00;95073.06;5023631;28;19913;-44
2023/08/29 09:39:32;;;;;;;;;;;18.90;67.50;;;13.41;100.00;95068.22;5014521;28;19913;-44
2023/08/29 09:42:05;;;;;;;;;;;18.90;67.40;;;13.37;100.00;95069.88;5014030;28;19971;-44
2023/08/29 09:44:41;;;;;;;;;;;18.90;67.50;;;13.34;100.00;95075.03;5014576;28;19909;-44
2023/08/29 09:47:09;;;;;;;;;;;18.80;67.40;;;13.29;100.00;95081.28;5013923;28;19909;-45
2023/08/29 09:49:46;;;;;;;;;;;18.70;67.30;;;13.11;100.00;95080.19;5014660;28;20015;-44
2023/08/29 09:52:14;;;;;;;;;;;18.60;67.20;;;13.08;100.00;95082.66;5014826;28;19909;-44
2023/08/29 09:54:47;;;;;;;;;;;18.50;67.00;;;13.14;100.00;95084.94;5013328;28;19917;-48
2023/08/29 09:57:15;;;;;;;;;;;18.40;67.20;;;13.03;100.00;95086.19;5014331;28;20047;-44
2023/08/29 09:59:43;;;;;;;;;;;18.20;67.30;;;13.05;100.00;95084.03;5013436;28;19913;-49
2023/08/29 10:02:11;;;;;;;;;;;18.20;67.40;;;13.03;100.00;95086.19;5012946;28;19913;-51
2023/08/29 10:04:45;;;;;;;;;;;18.20;67.50;;;13.04;100.00;95082.44;4992052;28;20430;-46
2023/08/29 10:07:17;;;;;;;;;;;18.30;67.50;;;13.13;100.00;95091.41;5013517;28;20395;-44
2023/08/29 10:09:44;;;;;;;;;;;18.40;67.50;;;13.15;100.00;95096.44;5013818;28;19909;-50
2023/08/29 10:12:11;;;;;;;;;;;18.50;67.50;;;13.16;100.00;95087.31;5022272;28;19909;-48
2023/08/29 10:14:38;;;;;;;;;;;18.50;67.40;;;13.20;100.00;95091.03;5013811;28;19953;-48
2023/08/29 10:17:06;;;;;;;;;;;18.50;67.30;;;13.14;100.00;95087.63;5011180;28;20422;-45
2023/08/29 10:19:33;;;;;;;;;;;18.50;67.30;;;13.18;100.00;95088.63;4996664;28;19920;-45
2023/08/29 10:22:01;;;;;;;;;;;18.50;67.30;;;13.19;100.00;95086.75;4996542;28;19913;-44
2023/08/29 10:24:28;;;;;;;;;;;18.50;67.20;;;13.20;100.00;95077.66;5016059;28;19909;-48
2023/08/29 10:26:55;;;;;;;;;;;18.50;67.20;;;13.25;100.00;95082.94;5013966;28;20368;-44
2023/08/29 10:29:21;;;;;;;;;;;18.50;67.20;;;13.23;100.00;95085.09;5000776;28;19909;-45
2023/08/29 10:31:48;;;;;;;;;;;18.50;67.20;;;13.22;100.00;95083.47;5013933;28;19909;-47
2023/08/29 10:34:14;;;;;;;;;;;18.50;67.20;;;13.19;100.00;95084.06;5013726;28;20291;-46
2023/08/29 10:36:41;;;;;;;;;;;18.50;67.10;;;13.09;100.00;95089.59;5006816;28;19963;-48
2023/08/29 10:39:15;;;;;;;;;;;18.40;67.00;;;13.09;100.00;95090.38;5003476;28;20007;-44
2023/08/29 10:41:46;;;;;;;;;;;18.30;67.00;;;13.10;100.00;95085.81;4996876;28;19936;-49
2023/08/29 10:44:41;;;;;;;;;;;18.20;67.00;;;12.94;100.00;95085.25;5012122;28;19980;-51
2023/08/29 10:47:26;;;;;;;;;;;18.10;67.20;;;12.95;100.00;95081.53;5010038;28;26672;-49
2023/08/29 10:50:05;;;;;;;;;;;18.10;67.20;;;13.00;100.00;95083.31;5011294;28;20003;-50
2023/08/29 10:52:41;;;;;;;;;;;18.00;67.30;;;13.00;100.00;95078.75;5010441;28;19985;-50
2023/08/29 10:55:27;;;;;;;;;;;18.00;67.40;;;13.01;100.00;95084.91;5013374;28;19995;-46
2023/08/29 10:57:58;;;;;;;;;;;18.00;67.40;;;13.06;100.00;95085.59;5012046;28;19913;-50
2023/08/29 11:00:55;;;;;;;;;;;18.10;67.40;;;13.08;100.00;95082.66;5012102;28;20456;-47
2023/08/29 11:03:49;;;;;;;;;;;18.10;67.30;;;13.17;100.00;95088.94;5008537;28;20287;-48
2023/08/29 11:06:23;;;;;;;;;;;18.30;67.30;;;13.19;100.00;95076.84;5008173;28;20000;-49
2023/08/29 11:08:50;;;;;;;;;;;18.30;67.20;;;13.26;100.00;95081.06;5012859;28;20000;-49
2023/08/29 11:11:18;;;;;;;;;;;18.40;67.10;;;13.28;100.00;95073.53;4994580;28;20079;-49
2023/08/29 11:13:57;;;;;;;;;;;18.50;67.00;;;13.30;100.00;95079.38;5012821;28;19909;-49